sensor_id;sensor_type;location;lat;lon;timestamp;pressure;altitude;pressure_sealevel;temperature;humidity
56825;BME280;42705;50.326;18.772;2024-02-23T00:05:11;96506.50;;;8.71;66.02
56825;BME280;42705;50.326;18.772;2024-02-23T00:10:32;96506.37;;;8.70;66.21
56825;BME280;42705;50.326;18.772;2024-02-23T00:15:54;96505.52;;;8.67;65.89
56825;BME280;42705;50.326;18.772;2024-02-23T00:21:16;96503.74;;;8.67;66.08
56825;BME280;42705;50.326;18.772;2024-02-23T00:26:38;96497.70;;;8.73;66.14
56825;BME280;42705;50.326;18.772;2024-02-23T00:32:00;96492.67;;;8.77;66.15
56825;BME280;42705;50.326;18.772;2024-02-23T00:37:22;96491.66;;;8.80;65.94
56825;BME280;42705;50.326;18.772;2024-02-23T00:42:44;96499.83;;;8.82;66.21
56825;BME280;42705;50.326;18.772;2024-02-23T00:48:06;96500.61;;;8.79;66.48
56825;BME280;42705;50.326;18.772;2024-02-23T00:53:30;96506.67;;;8.77;66.23
56825;BME280;42705;50.326;18.772;2024-02-23T00:58:52;96515.81;;;8.73;65.95
56825;BME280;42705;50.326;18.772;2024-02-23T01:04:14;96512.73;;;8.65;66.00
56825;BME280;42705;50.326;18.772;2024-02-23T01:09:37;96512.02;;;8.54;65.79
56825;BME280;42705;50.326;18.772;2024-02-23T01:14:59;96509.36;;;8.46;66.46
56825;BME280;42705;50.326;18.772;2024-02-23T01:20:21;96503.88;;;8.43;66.58
56825;BME280;42705;50.326;18.772;2024-02-23T01:25:42;96506.41;;;8.44;66.76
56825;BME280;42705;50.326;18.772;2024-02-23T01:31:04;96506.21;;;8.44;66.74
56825;BME280;42705;50.326;18.772;2024-02-23T01:36:29;96505.30;;;8.42;67.05
56825;BME280;42705;50.326;18.772;2024-02-23T01:41:51;96490.49;;;8.39;67.04
56825;BME280;42705;50.326;18.772;2024-02-23T01:47:13;96487.38;;;8.38;67.19
56825;BME280;42705;50.326;18.772;2024-02-23T01:52:35;96487.84;;;8.39;67.22
56825;BME280;42705;50.326;18.772;2024-02-23T01:57:57;96492.88;;;8.38;67.31
56825;BME280;42705;50.326;18.772;2024-02-23T02:03:20;96490.13;;;8.35;67.60
56825;BME280;42705;50.326;18.772;2024-02-23T02:08:42;96485.84;;;8.31;67.80
56825;BME280;42705;50.326;18.772;2024-02-23T02:14:04;96490.48;;;8.32;67.53
56825;BME280;42705;50.326;18.772;2024-02-23T02:19:26;96479.38;;;8.31;67.62
56825;BME280;42705;50.326;18.772;2024-02-23T02:24:48;96490.41;;;8.31;67.25
56825;BME280;42705;50.326;18.772;2024-02-23T02:30:13;96503.20;;;8.30;67.57
56825;BME280;42705;50.326;18.772;2024-02-23T02:35:35;96513.21;;;8.30;67.29
56825;BME280;42705;50.326;18.772;2024-02-23T02:40:57;96517.71;;;8.26;67.76
56825;BME280;42705;50.326;18.772;2024-02-23T02:46:22;96525.48;;;8.17;67.78
56825;BME280;42705;50.326;18.772;2024-02-23T02:51:44;96528.39;;;8.09;67.93
56825;BME280;42705;50.326;18.772;2024-02-23T02:57:06;96532.82;;;8.06;68.03
56825;BME280;42705;50.326;18.772;2024-02-23T03:02:28;96538.33;;;7.98;68.21
56825;BME280;42705;50.326;18.772;2024-02-23T03:07:50;96543.08;;;7.90;68.36
56825;BME280;42705;50.326;18.772;2024-02-23T03:13:12;96535.54;;;7.89;68.98
56825;BME280;42705;50.326;18.772;2024-02-23T03:18:35;96544.87;;;7.86;68.79
56825;BME280;42705;50.326;18.772;2024-02-23T03:23:57;96542.96;;;7.80;69.11
56825;BME280;42705;50.326;18.772;2024-02-23T03:29:18;96553.75;;;7.77;69.41
56825;BME280;42705;50.326;18.772;2024-02-23T03:34:41;96550.77;;;7.70;69.69
56825;BME280;42705;50.326;18.772;2024-02-23T03:40:04;96553.71;;;7.64;69.94
56825;BME280;42705;50.326;18.772;2024-02-23T03:45:26;96554.92;;;7.64;70.18
56825;BME280;42705;50.326;18.772;2024-02-23T03:50:48;96556.86;;;7.59;70.36
56825;BME280;42705;50.326;18.772;2024-02-23T03:56:10;96561.77;;;7.52;70.72
56825;BME280;42705;50.326;18.772;2024-02-23T04:01:32;96562.07;;;7.49;70.95
56825;BME280;42705;50.326;18.772;2024-02-23T04:06:54;96568.68;;;7.48;71.22
56825;BME280;42705;50.326;18.772;2024-02-23T04:12:16;96576.68;;;7.41;71.47
56825;BME280;42705;50.326;18.772;2024-02-23T04:17:38;96579.31;;;7.37;71.71
56825;BME280;42705;50.326;18.772;2024-02-23T04:23:00;96585.77;;;7.34;72.03
56825;BME280;42705;50.326;18.772;2024-02-23T04:28:22;96591.36;;;7.29;72.24
56825;BME280;42705;50.326;18.772;2024-02-23T04:33:44;96589.59;;;7.28;72.49
56825;BME280;42705;50.326;18.772;2024-02-23T04:39:06;96597.28;;;7.25;72.79
56825;BME280;42705;50.326;18.772;2024-02-23T04:44:27;96595.33;;;7.19;73.02
56825;BME280;42705;50.326;18.772;2024-02-23T04:49:50;96601.64;;;7.15;73.40
56825;BME280;42705;50.326;18.772;2024-02-23T04:55:11;96609.86;;;7.13;73.42
56825;BME280;42705;50.326;18.772;2024-02-23T05:00:33;96614.67;;;7.07;73.94
56825;BME280;42705;50.326;18.772;2024-02-23T05:05:55;96618.81;;;7.04;74.21
56825;BME280;42705;50.326;18.772;2024-02-23T05:11:18;96620.98;;;7.05;74.47
56825;BME280;42705;50.326;18.772;2024-02-23T05:16:40;96627.75;;;7.00;74.56
56825;BME280;42705;50.326;18.772;2024-02-23T05:22:01;96629.45;;;7.02;75.10
56825;BME280;42705;50.326;18.772;2024-02-23T05:27:23;96630.69;;;7.05;74.88
56825;BME280;42705;50.326;18.772;2024-02-23T05:32:47;96637.33;;;7.04;75.31
56825;BME280;42705;50.326;18.772;2024-02-23T05:38:09;96646.59;;;7.04;74.92
56825;BME280;42705;50.326;18.772;2024-02-23T05:43:31;96662.91;;;7.02;75.49
56825;BME280;42705;50.326;18.772;2024-02-23T05:48:53;96672.81;;;6.99;75.69
56825;BME280;42705;50.326;18.772;2024-02-23T05:54:15;96678.39;;;7.00;75.91
56825;BME280;42705;50.326;18.772;2024-02-23T05:59:37;96689.60;;;7.03;76.20
56825;BME280;42705;50.326;18.772;2024-02-23T06:04:59;96700.84;;;7.05;76.00
56825;BME280;42705;50.326;18.772;2024-02-23T06:10:21;96711.84;;;7.11;76.19
56825;BME280;42705;50.326;18.772;2024-02-23T06:15:43;96728.31;;;7.13;76.28
56825;BME280;42705;50.326;18.772;2024-02-23T06:21:13;96748.71;;;7.10;76.26
56825;BME280;42705;50.326;18.772;2024-02-23T06:26:35;96757.27;;;7.08;76.60
56825;BME280;42705;50.326;18.772;2024-02-23T06:31:57;96759.81;;;7.03;76.85
56825;BME280;42705;50.326;18.772;2024-02-23T06:37:19;96760.76;;;7.03;76.84
56825;BME280;42705;50.326;18.772;2024-02-23T06:42:41;96773.48;;;7.04;76.99
56825;BME280;42705;50.326;18.772;2024-02-23T06:48:03;96770.71;;;7.04;77.39
56825;BME280;42705;50.326;18.772;2024-02-23T06:53:25;96773.05;;;7.08;77.52
56825;BME280;42705;50.326;18.772;2024-02-23T06:58:47;96779.54;;;7.06;77.65
56825;BME280;42705;50.326;18.772;2024-02-23T07:04:09;96783.53;;;7.02;78.05
56825;BME280;42705;50.326;18.772;2024-02-23T07:09:31;96794.21;;;7.03;78.30
56825;BME280;42705;50.326;18.772;2024-02-23T07:14:53;96799.68;;;7.03;78.40
56825;BME280;42705;50.326;18.772;2024-02-23T07:20:15;96796.81;;;7.05;78.77
56825;BME280;42705;50.326;18.772;2024-02-23T07:25:37;96802.79;;;7.14;79.07
56825;BME280;42705;50.326;18.772;2024-02-23T07:30:59;96804.35;;;7.23;79.07
56825;BME280;42705;50.326;18.772;2024-02-23T07:36:21;96810.31;;;7.31;78.88
56825;BME280;42705;50.326;18.772;2024-02-23T07:41:49;96805.31;;;7.34;78.96
56825;BME280;42705;50.326;18.772;2024-02-23T07:47:11;96806.40;;;7.40;79.22
56825;BME280;42705;50.326;18.772;2024-02-23T07:52:33;96812.14;;;7.47;78.79
56825;BME280;42705;50.326;18.772;2024-02-23T07:57:55;96815.34;;;7.48;78.86
56825;BME280;42705;50.326;18.772;2024-02-23T08:03:22;96812.45;;;7.50;78.70
56825;BME280;42705;50.326;18.772;2024-02-23T08:08:46;96817.69;;;7.57;79.15
56825;BME280;42705;50.326;18.772;2024-02-23T08:14:08;96819.32;;;7.58;79.27
56825;BME280;42705;50.326;18.772;2024-02-23T08:19:30;96823.66;;;7.65;79.01
56825;BME280;42705;50.326;18.772;2024-02-23T08:24:52;96824.91;;;7.70;79.08
56825;BME280;42705;50.326;18.772;2024-02-23T08:30:14;96825.83;;;7.69;79.36
56825;BME280;42705;50.326;18.772;2024-02-23T08:35:36;96819.50;;;7.73;79.17
56825;BME280;42705;50.326;18.772;2024-02-23T08:40:58;96824.22;;;7.74;79.26
56825;BME280;42705;50.326;18.772;2024-02-23T08:46:20;96829.73;;;7.72;79.10
56825;BME280;42705;50.326;18.772;2024-02-23T08:51:43;96833.16;;;7.75;79.63
56825;BME280;42705;50.326;18.772;2024-02-23T08:57:05;96837.86;;;7.78;79.48
56825;BME280;42705;50.326;18.772;2024-02-23T09:02:27;96847.55;;;7.82;79.49
56825;BME280;42705;50.326;18.772;2024-02-23T09:07:49;96849.74;;;7.91;79.58
56825;BME280;42705;50.326;18.772;2024-02-23T09:13:11;96851.16;;;7.99;79.65
56825;BME280;42705;50.326;18.772;2024-02-23T09:18:33;96858.74;;;8.10;79.41
56825;BME280;42705;50.326;18.772;2024-02-23T09:23:55;96869.17;;;8.26;79.38
56825;BME280;42705;50.326;18.772;2024-02-23T09:29:17;96874.30;;;8.44;79.16
56825;BME280;42705;50.326;18.772;2024-02-23T09:34:39;96884.84;;;8.66;78.80
56825;BME280;42705;50.326;18.772;2024-02-23T09:40:01;96882.39;;;8.81;78.64
56825;BME280;42705;50.326;18.772;2024-02-23T09:45:24;96887.70;;;8.91;78.31
56825;BME280;42705;50.326;18.772;2024-02-23T09:50:47;96897.48;;;8.99;78.39
56825;BME280;42705;50.326;18.772;2024-02-23T09:56:11;96906.35;;;8.99;78.05
56825;BME280;42705;50.326;18.772;2024-02-23T10:01:33;96902.89;;;8.99;78.06
56825;BME280;42705;50.326;18.772;2024-02-23T10:06:56;96910.58;;;9.04;78.08
56825;BME280;42705;50.326;18.772;2024-02-23T10:12:18;96909.53;;;9.07;78.13
56825;BME280;42705;50.326;18.772;2024-02-23T10:17:40;96904.08;;;9.17;77.63
56825;BME280;42705;50.326;18.772;2024-02-23T10:23:02;96896.80;;;9.21;77.19
56825;BME280;42705;50.326;18.772;2024-02-23T10:28:24;96898.36;;;9.26;77.39
56825;BME280;42705;50.326;18.772;2024-02-23T10:33:46;96903.20;;;9.28;77.43
56825;BME280;42705;50.326;18.772;2024-02-23T10:39:09;96904.94;;;9.30;77.09
56825;BME280;42705;50.326;18.772;2024-02-23T10:44:31;96919.87;;;9.30;76.97
56825;BME280;42705;50.326;18.772;2024-02-23T10:49:53;96935.40;;;9.23;76.87
56825;BME280;42705;50.326;18.772;2024-02-23T10:55:17;96950.78;;;9.15;76.86
56825;BME280;42705;50.326;18.772;2024-02-23T11:00:40;96960.60;;;9.05;76.83
56825;BME280;42705;50.326;18.772;2024-02-23T11:06:07;96954.01;;;9.03;77.12
56825;BME280;42705;50.326;18.772;2024-02-23T11:11:31;96949.71;;;9.10;77.05
56825;BME280;42705;50.326;18.772;2024-02-23T11:16:53;96956.30;;;9.14;76.73
56825;BME280;42705;50.326;18.772;2024-02-23T11:22:23;96976.13;;;9.09;76.94
56825;BME280;42705;50.326;18.772;2024-02-23T11:27:49;96983.40;;;9.05;76.82
56825;BME280;42705;50.326;18.772;2024-02-23T11:33:11;96986.84;;;8.99;77.08
56825;BME280;42705;50.326;18.772;2024-02-23T11:38:33;96981.16;;;9.01;77.35
56825;BME280;42705;50.326;18.772;2024-02-23T11:43:56;96989.69;;;9.06;77.00
56825;BME280;42705;50.326;18.772;2024-02-23T11:49:19;96991.67;;;9.09;77.36
56825;BME280;42705;50.326;18.772;2024-02-23T11:54:42;96991.38;;;9.13;77.00
56825;BME280;42705;50.326;18.772;2024-02-23T12:00:05;97010.73;;;9.15;77.05
56825;BME280;42705;50.326;18.772;2024-02-23T12:05:28;97017.20;;;9.08;77.09
56825;BME280;42705;50.326;18.772;2024-02-23T12:10:50;97018.73;;;9.03;76.92
56825;BME280;42705;50.326;18.772;2024-02-23T12:16:14;97000.36;;;9.06;76.89
56825;BME280;42705;50.326;18.772;2024-02-23T12:21:36;96991.48;;;9.07;76.98
56825;BME280;42705;50.326;18.772;2024-02-23T12:26:58;96997.65;;;9.08;76.95
56825;BME280;42705;50.326;18.772;2024-02-23T12:32:20;96987.52;;;9.13;77.38
56825;BME280;42705;50.326;18.772;2024-02-23T12:37:43;97001.86;;;9.28;77.35
56825;BME280;42705;50.326;18.772;2024-02-23T12:43:06;96999.76;;;9.32;76.98
56825;BME280;42705;50.326;18.772;2024-02-23T12:48:28;96998.98;;;9.32;77.10
56825;BME280;42705;50.326;18.772;2024-02-23T12:53:52;97007.67;;;9.29;76.79
56825;BME280;42705;50.326;18.772;2024-02-23T12:59:14;97016.28;;;9.21;76.51
56825;BME280;42705;50.326;18.772;2024-02-23T13:04:35;97019.59;;;9.20;76.26
56825;BME280;42705;50.326;18.772;2024-02-23T13:09:58;97020.73;;;9.17;76.27
56825;BME280;42705;50.326;18.772;2024-02-23T13:15:20;97029.65;;;9.12;76.08
56825;BME280;42705;50.326;18.772;2024-02-23T13:20:42;97027.71;;;9.12;76.17
56825;BME280;42705;50.326;18.772;2024-02-23T13:26:04;97021.42;;;9.14;76.29
56825;BME280;42705;50.326;18.772;2024-02-23T13:31:26;97020.23;;;9.14;75.92
56825;BME280;42705;50.326;18.772;2024-02-23T13:36:48;97030.74;;;9.21;76.25
56825;BME280;42705;50.326;18.772;2024-02-23T13:42:11;97037.52;;;9.24;75.80
56825;BME280;42705;50.326;18.772;2024-02-23T13:47:34;97052.09;;;9.14;75.43
56825;BME280;42705;50.326;18.772;2024-02-23T13:52:56;97055.09;;;9.12;75.65
56825;BME280;42705;50.326;18.772;2024-02-23T13:58:19;97056.83;;;9.09;75.58
56825;BME280;42705;50.326;18.772;2024-02-23T14:03:42;97057.26;;;9.00;75.57
56825;BME280;42705;50.326;18.772;2024-02-23T14:09:04;97061.84;;;8.94;75.87
56825;BME280;42705;50.326;18.772;2024-02-23T14:14:26;97058.56;;;8.87;75.77
56825;BME280;42705;50.326;18.772;2024-02-23T14:19:48;97063.84;;;8.87;75.54
56825;BME280;42705;50.326;18.772;2024-02-23T14:25:12;97068.59;;;8.83;75.83
56825;BME280;42705;50.326;18.772;2024-02-23T14:30:34;97066.92;;;8.79;76.21
56825;BME280;42705;50.326;18.772;2024-02-23T14:35:56;97066.56;;;8.81;76.61
56825;BME280;42705;50.326;18.772;2024-02-23T14:41:18;97067.86;;;8.83;76.63
56825;BME280;42705;50.326;18.772;2024-02-23T14:46:40;97065.97;;;8.86;76.75
56825;BME280;42705;50.326;18.772;2024-02-23T14:52:02;97055.05;;;8.91;77.13
56825;BME280;42705;50.326;18.772;2024-02-23T14:57:24;97065.81;;;8.99;77.15
56825;BME280;42705;50.326;18.772;2024-02-23T15:02:46;97069.02;;;9.06;77.18
56825;BME280;42705;50.326;18.772;2024-02-23T15:08:08;97067.58;;;9.04;77.76
56825;BME280;42705;50.326;18.772;2024-02-23T15:13:30;97068.45;;;9.04;77.31
56825;BME280;42705;50.326;18.772;2024-02-23T15:18:52;97064.75;;;9.06;77.32
56825;BME280;42705;50.326;18.772;2024-02-23T15:24:15;97058.31;;;9.09;77.55
56825;BME280;42705;50.326;18.772;2024-02-23T15:29:39;97062.11;;;9.10;76.89
56825;BME280;42705;50.326;18.772;2024-02-23T15:35:02;97059.86;;;9.03;76.64
56825;BME280;42705;50.326;18.772;2024-02-23T15:40:24;97061.66;;;9.03;76.81
56825;BME280;42705;50.326;18.772;2024-02-23T15:45:47;97065.38;;;9.03;76.90
56825;BME280;42705;50.326;18.772;2024-02-23T15:51:08;97065.32;;;8.99;76.92
56825;BME280;42705;50.326;18.772;2024-02-23T15:56:30;97068.10;;;8.93;76.71
56825;BME280;42705;50.326;18.772;2024-02-23T16:01:53;97071.46;;;8.94;77.04
56825;BME280;42705;50.326;18.772;2024-02-23T16:07:16;97078.00;;;8.93;76.91
56825;BME280;42705;50.326;18.772;2024-02-23T16:12:38;97088.02;;;8.95;77.04
56825;BME280;42705;50.326;18.772;2024-02-23T16:18:01;97084.12;;;9.04;77.31
56825;BME280;42705;50.326;18.772;2024-02-23T16:23:23;97081.88;;;9.09;77.27
56825;BME280;42705;50.326;18.772;2024-02-23T16:28:45;97093.30;;;9.05;77.07
56825;BME280;42705;50.326;18.772;2024-02-23T16:34:07;97101.23;;;9.02;77.06
56825;BME280;42705;50.326;18.772;2024-02-23T16:39:30;97093.15;;;9.08;77.80
56825;BME280;42705;50.326;18.772;2024-02-23T16:44:51;97080.21;;;9.15;77.06
56825;BME280;42705;50.326;18.772;2024-02-23T16:50:13;97072.92;;;9.05;77.03
56825;BME280;42705;50.326;18.772;2024-02-23T16:55:35;97078.55;;;8.99;77.22
56825;BME280;42705;50.326;18.772;2024-02-23T17:01:00;97084.13;;;9.01;76.95
56825;BME280;42705;50.326;18.772;2024-02-23T17:06:22;97082.44;;;9.09;77.10
56825;BME280;42705;50.326;18.772;2024-02-23T17:11:44;97077.30;;;9.11;77.16
56825;BME280;42705;50.326;18.772;2024-02-23T17:17:06;97076.63;;;9.16;77.20
56825;BME280;42705;50.326;18.772;2024-02-23T17:22:28;97078.34;;;9.13;77.21
56825;BME280;42705;50.326;18.772;2024-02-23T17:27:50;97097.13;;;9.00;76.61
56825;BME280;42705;50.326;18.772;2024-02-23T17:33:14;97096.73;;;8.85;76.68
56825;BME280;42705;50.326;18.772;2024-02-23T17:38:37;97093.56;;;8.79;76.82
56825;BME280;42705;50.326;18.772;2024-02-23T17:43:59;97093.48;;;8.73;77.02
56825;BME280;42705;50.326;18.772;2024-02-23T17:49:22;97093.45;;;8.63;76.99
56825;BME280;42705;50.326;18.772;2024-02-23T17:54:44;97090.21;;;8.58;77.35
56825;BME280;42705;50.326;18.772;2024-02-23T18:00:07;97085.01;;;8.52;77.21
56825;BME280;42705;50.326;18.772;2024-02-23T18:05:29;97074.94;;;8.45;77.25
56825;BME280;42705;50.326;18.772;2024-02-23T18:10:51;97071.86;;;8.38;77.25
56825;BME280;42705;50.326;18.772;2024-02-23T18:16:13;97068.90;;;8.38;77.65
56825;BME280;42705;50.326;18.772;2024-02-23T18:21:39;97071.15;;;8.39;77.83
56825;BME280;42705;50.326;18.772;2024-02-23T18:27:03;97077.70;;;8.37;77.63
56825;BME280;42705;50.326;18.772;2024-02-23T18:32:25;97062.80;;;8.36;77.80
56825;BME280;42705;50.326;18.772;2024-02-23T18:37:47;97064.74;;;8.34;77.86
56825;BME280;42705;50.326;18.772;2024-02-23T18:43:09;97067.52;;;8.26;77.59
56825;BME280;42705;50.326;18.772;2024-02-23T18:48:32;97067.85;;;8.21;78.06
56825;BME280;42705;50.326;18.772;2024-02-23T18:53:55;97071.55;;;8.19;77.86
56825;BME280;42705;50.326;18.772;2024-02-23T18:59:17;97071.18;;;8.12;78.35
56825;BME280;42705;50.326;18.772;2024-02-23T19:04:39;97062.16;;;8.05;77.85
56825;BME280;42705;50.326;18.772;2024-02-23T19:10:02;97057.00;;;8.01;78.07
56825;BME280;42705;50.326;18.772;2024-02-23T19:15:24;97049.85;;;8.01;78.27
56825;BME280;42705;50.326;18.772;2024-02-23T19:20:47;97050.41;;;8.00;77.97
56825;BME280;42705;50.326;18.772;2024-02-23T19:26:09;97043.39;;;8.00;78.42
56825;BME280;42705;50.326;18.772;2024-02-23T19:31:31;97048.16;;;7.99;78.25
56825;BME280;42705;50.326;18.772;2024-02-23T19:36:53;97044.60;;;7.96;78.17
56825;BME280;42705;50.326;18.772;2024-02-23T19:42:16;97039.86;;;7.95;78.33
56825;BME280;42705;50.326;18.772;2024-02-23T19:47:38;97030.98;;;7.92;78.21
56825;BME280;42705;50.326;18.772;2024-02-23T19:53:00;97037.56;;;7.92;77.94
56825;BME280;42705;50.326;18.772;2024-02-23T19:58:22;97031.87;;;8.02;78.32
56825;BME280;42705;50.326;18.772;2024-02-23T20:03:44;97026.29;;;8.14;78.24
56825;BME280;42705;50.326;18.772;2024-02-23T20:09:06;97023.34;;;8.18;78.26
56825;BME280;42705;50.326;18.772;2024-02-23T20:14:31;97014.86;;;8.25;78.11
56825;BME280;42705;50.326;18.772;2024-02-23T20:19:54;97005.53;;;8.28;78.16
56825;BME280;42705;50.326;18.772;2024-02-23T20:25:16;96986.48;;;8.27;77.99
56825;BME280;42705;50.326;18.772;2024-02-23T20:30:38;96974.06;;;8.30;77.67
56825;BME280;42705;50.326;18.772;2024-02-23T20:36:01;96978.07;;;8.28;77.67
56825;BME280;42705;50.326;18.772;2024-02-23T20:41:23;96979.40;;;8.19;77.88
56825;BME280;42705;50.326;18.772;2024-02-23T20:46:45;96978.23;;;8.18;77.79
56825;BME280;42705;50.326;18.772;2024-02-23T20:52:07;96971.48;;;8.23;77.90
56825;BME280;42705;50.326;18.772;2024-02-23T20:57:33;96968.16;;;8.26;77.84
56825;BME280;42705;50.326;18.772;2024-02-23T21:02:55;96969.16;;;8.25;77.77
56825;BME280;42705;50.326;18.772;2024-02-23T21:08:17;96971.94;;;8.28;77.60
56825;BME280;42705;50.326;18.772;2024-02-23T21:13:39;96969.39;;;8.31;77.70
56825;BME280;42705;50.326;18.772;2024-02-23T21:19:03;96971.20;;;8.32;77.42
56825;BME280;42705;50.326;18.772;2024-02-23T21:24:25;96960.95;;;8.32;77.69
56825;BME280;42705;50.326;18.772;2024-02-23T21:29:47;96958.95;;;8.35;77.50
56825;BME280;42705;50.326;18.772;2024-02-23T21:35:09;96953.46;;;8.37;77.19
56825;BME280;42705;50.326;18.772;2024-02-23T21:40:31;96951.11;;;8.34;77.36
56825;BME280;42705;50.326;18.772;2024-02-23T21:45:53;96950.27;;;8.34;76.86
56825;BME280;42705;50.326;18.772;2024-02-23T21:51:15;96942.46;;;8.39;76.92
56825;BME280;42705;50.326;18.772;2024-02-23T21:56:37;96935.26;;;8.38;76.45
56825;BME280;42705;50.326;18.772;2024-02-23T22:01:58;96926.13;;;8.34;76.39
56825;BME280;42705;50.326;18.772;2024-02-23T22:07:27;96928.20;;;8.34;76.50
56825;BME280;42705;50.326;18.772;2024-02-23T22:12:49;96920.61;;;8.34;76.32
56825;BME280;42705;50.326;18.772;2024-02-23T22:18:11;96908.95;;;8.32;76.18
56825;BME280;42705;50.326;18.772;2024-02-23T22:23:34;96904.82;;;8.31;75.83
56825;BME280;42705;50.326;18.772;2024-02-23T22:28:56;96903.42;;;8.33;76.02
56825;BME280;42705;50.326;18.772;2024-02-23T22:34:18;96896.73;;;8.37;75.92
56825;BME280;42705;50.326;18.772;2024-02-23T22:39:42;96897.95;;;8.36;75.88
56825;BME280;42705;50.326;18.772;2024-02-23T22:45:04;96892.95;;;8.32;75.87
56825;BME280;42705;50.326;18.772;2024-02-23T22:50:26;96893.20;;;8.30;75.56
56825;BME280;42705;50.326;18.772;2024-02-23T22:55:48;96890.54;;;8.30;75.83
56825;BME280;42705;50.326;18.772;2024-02-23T23:01:10;96893.80;;;8.29;75.48
56825;BME280;42705;50.326;18.772;2024-02-23T23:06:32;96889.52;;;8.33;75.23
56825;BME280;42705;50.326;18.772;2024-02-23T23:11:54;96880.34;;;8.36;75.36
56825;BME280;42705;50.326;18.772;2024-02-23T23:17:16;96877.55;;;8.37;75.31
56825;BME280;42705;50.326;18.772;2024-02-23T23:22:38;96870.31;;;8.40;75.21
56825;BME280;42705;50.326;18.772;2024-02-23T23:28:00;96865.59;;;8.40;74.90
56825;BME280;42705;50.326;18.772;2024-02-23T23:33:22;96865.10;;;8.38;74.37
56825;BME280;42705;50.326;18.772;2024-02-23T23:38:44;96868.02;;;8.39;74.53
56825;BME280;42705;50.326;18.772;2024-02-23T23:44:06;96858.92;;;8.37;74.64
56825;BME280;42705;50.326;18.772;2024-02-23T23:49:28;96855.15;;;8.39;74.35
56825;BME280;42705;50.326;18.772;2024-02-23T23:54:50;96851.62;;;8.41;74.22
